Tower Lakes, Illinois
Current Conditions -  °F | °C
As of 1:52 AM on Thursday 29 Jan 2015 (Local Time) from KPWK Reporting Station
Overcast Overcast  
Wind Chill: 28°   Ceiling: 9500
Heat Index: 35°   Visibility: 10mi
Dew Point: 26°   Wind: 9mph
Humidity: 70%   Direction: 170°S
Pressure: 29.77"   Gusts: NA
Location:  42.1512°N, 88.1636°W
Report Text: KPWK 290752Z AUTO 17008KT 10SM OVC095 02/M03 A2977 RMK AO2 SLP087 T00171033
Loading
Personal Weather Stations






























Interactive Weather Map New forecast layout! Learn more

10-Day Weather Forecast

Advertisements
Track Severe Weather on mobile